createdAt,value
2022-10-01T00:04:09.637Z,99584.41
2022-10-01T00:09:11.182Z,99595.84
2022-10-01T00:14:12.724Z,99591.59
2022-10-01T00:19:15.076Z,99592.56
2022-10-01T00:24:16.695Z,99589.91
2022-10-01T00:29:18.245Z,99584.53
2022-10-01T00:34:19.894Z,99587.53
2022-10-01T00:39:21.755Z,99581.75
2022-10-01T00:44:38.405Z,99583.38
2022-10-01T00:49:41.106Z,99580.75
2022-10-01T00:54:49.334Z,99579.09
2022-10-01T00:59:54.384Z,99572.13
2022-10-01T01:04:56.095Z,99573.34
2022-10-01T01:09:58.315Z,99572.97
2022-10-01T01:15:15.143Z,99570.50
2022-10-01T01:20:46.036Z,99564.22
2022-10-01T01:26:08.093Z,99553.50
2022-10-01T01:31:18.675Z,99556.16
2022-10-01T01:36:27.590Z,99535.56
2022-10-01T01:41:35.072Z,99535.72
2022-10-01T01:46:41.785Z,99529.53
2022-10-01T01:51:54.413Z,99530.88
2022-10-01T01:56:58.271Z,99534.69
2022-10-01T02:02:00.818Z,99531.63
2022-10-01T02:07:16.136Z,99526.97
2022-10-01T02:12:56.041Z,99530.44
2022-10-01T02:18:16.597Z,99512.59
2022-10-01T02:23:24.217Z,99520.59
2022-10-01T02:28:26.139Z,99509.19
2022-10-01T02:33:32.366Z,99513.50
2022-10-01T02:38:37.423Z,99516.13
2022-10-01T02:44:02.269Z,99506.22
2022-10-01T02:49:04.479Z,99501.59
2022-10-01T02:54:20.865Z,99503.97
2022-10-01T02:59:22.654Z,99495.28
2022-10-01T03:04:24.187Z,99495.41
2022-10-01T03:09:26.841Z,99497.78
2022-10-01T03:14:29.181Z,99488.75
2022-10-01T03:19:30.782Z,99492.16
2022-10-01T03:24:32.386Z,99483.03
2022-10-01T03:29:33.980Z,99492.63
2022-10-01T03:34:35.575Z,99489.28
2022-10-01T03:39:37.238Z,99487.94
2022-10-01T03:44:38.902Z,99488.47
2022-10-01T03:49:40.528Z,99490.41
2022-10-01T03:54:42.083Z,99482.25
2022-10-01T03:59:43.633Z,99485.56
2022-10-01T04:04:45.187Z,99482.56
2022-10-01T04:09:46.748Z,99479.38
2022-10-01T04:14:48.285Z,99466.16
2022-10-01T04:19:49.808Z,99456.69
2022-10-01T04:24:52.346Z,99454.13
2022-10-01T04:29:53.875Z,99459.91
2022-10-01T04:34:55.522Z,99461.56
2022-10-01T04:39:57.104Z,99459.81
2022-10-01T04:44:58.650Z,99457.97
2022-10-01T04:50:00.189Z,99453.91
2022-10-01T04:55:01.786Z,99447.56
2022-10-01T05:00:05.914Z,99445.03
2022-10-01T05:05:08.118Z,99441.44
2022-10-01T05:10:13.268Z,99441.03
2022-10-01T05:15:16.404Z,99442.84
2022-10-01T05:20:21.382Z,99441.31
2022-10-01T05:25:23.427Z,99442.19
2022-10-01T05:30:25.305Z,99442.81
2022-10-01T05:35:27.757Z,99440.34
2022-10-01T05:40:30.605Z,99429.91
2022-10-01T05:45:32.643Z,99420.97
2022-10-01T05:50:39.222Z,99424.56
2022-10-01T05:55:40.765Z,99416.03
2022-10-01T06:00:43.289Z,99412.63
2022-10-01T06:05:45.002Z,99410.19
2022-10-01T06:10:47.141Z,99400.34
2022-10-01T06:15:52.319Z,99394.94
2022-10-01T06:20:53.873Z,99389.63
2022-10-01T06:25:55.419Z,99384.09
2022-10-01T06:30:57.087Z,99373.47
2022-10-01T06:35:58.656Z,99375.00
2022-10-01T06:41:01.846Z,99377.09
2022-10-01T06:46:05.133Z,99368.25
2022-10-01T06:51:06.955Z,99361.41
2022-10-01T06:56:08.621Z,99356.09
2022-10-01T07:01:11.088Z,99353.38
2022-10-01T07:06:12.860Z,99341.41
2022-10-01T07:11:14.442Z,99341.34
2022-10-01T07:16:16.123Z,99335.00
2022-10-01T07:21:17.669Z,99321.22
2022-10-01T07:26:19.193Z,99321.22
2022-10-01T07:31:20.881Z,99315.47
2022-10-01T07:36:22.493Z,99313.63
2022-10-01T07:41:24.082Z,99311.50
2022-10-01T07:46:25.613Z,99313.28
2022-10-01T07:51:27.195Z,99312.75
2022-10-01T07:56:29.090Z,99305.84
2022-10-01T08:01:32.019Z,99297.50
2022-10-01T08:06:33.931Z,99287.25
2022-10-01T08:11:38.031Z,99285.63
2022-10-01T08:16:41.045Z,99287.69
2022-10-01T08:21:42.995Z,99270.84
2022-10-01T08:26:44.705Z,99274.09
2022-10-01T08:31:46.365Z,99263.06
2022-10-01T08:36:51.733Z,99260.59
2022-10-01T08:41:53.262Z,99251.41
2022-10-01T08:47:08.260Z,99238.19
2022-10-01T08:52:24.064Z,99235.53
2022-10-01T08:57:32.390Z,99225.69
2022-10-01T09:02:38.104Z,99220.72
2022-10-01T09:08:04.281Z,99215.31
2022-10-01T09:13:30.381Z,99203.53
2022-10-01T09:18:57.483Z,99196.09
2022-10-01T09:24:15.835Z,99190.09
2022-10-01T09:29:31.338Z,99189.41
2022-10-01T09:34:40.059Z,99192.19
2022-10-01T09:40:24.861Z,99167.16
2022-10-01T09:45:26.600Z,99160.50
2022-10-01T09:50:38.607Z,99146.25
2022-10-01T09:55:53.572Z,99139.38
2022-10-01T10:00:56.595Z,99134.28
2022-10-01T10:06:02.288Z,99131.88
2022-10-01T10:11:10.492Z,99126.03
2022-10-01T10:16:26.423Z,99121.59
2022-10-01T10:21:30.865Z,99123.69
2022-10-01T10:26:40.016Z,99129.44
2022-10-01T10:31:45.807Z,99119.84
2022-10-01T10:36:47.994Z,99122.50
2022-10-01T10:41:51.969Z,99124.22
2022-10-01T10:46:59.712Z,99126.63
2022-10-01T10:52:01.762Z,99136.25
2022-10-01T10:57:04.485Z,99125.91
2022-10-01T11:02:16.024Z,99123.19
2022-10-01T11:07:23.678Z,99108.88
2022-10-01T11:13:06.704Z,99098.50
2022-10-01T11:18:25.153Z,99095.66
2022-10-01T11:23:48.100Z,99090.53
2022-10-01T11:29:15.104Z,99091.75
2022-10-01T11:34:48.663Z,99085.94
2022-10-01T11:39:55.742Z,99079.44
2022-10-01T11:45:17.877Z,99085.31
2022-10-01T11:50:25.212Z,99092.84
2022-10-01T11:56:07.056Z,99099.72
2022-10-01T12:01:16.293Z,99098.84
2022-10-01T12:06:40.970Z,99101.94
2022-10-01T12:11:54.542Z,99090.28
2022-10-01T12:17:09.883Z,99084.38
2022-10-01T12:22:15.748Z,99077.84
2022-10-01T12:27:56.985Z,99076.28
2022-10-01T12:33:17.352Z,99058.97
2022-10-01T12:38:43.271Z,99049.38
2022-10-01T12:43:53.885Z,99036.22
2022-10-01T12:49:15.809Z,99034.22
2022-10-01T12:54:30.998Z,99056.06
2022-10-01T13:00:05.214Z,99059.91
2022-10-01T13:05:37.531Z,99061.56
2022-10-01T13:10:59.997Z,99064.34
2022-10-01T13:16:16.852Z,99057.91
2022-10-01T13:21:29.332Z,99065.34
2022-10-01T13:26:34.135Z,99063.03
2022-10-01T13:31:51.627Z,99049.41
2022-10-01T13:36:53.553Z,99068.69
2022-10-01T13:41:58.579Z,99056.38
2022-10-01T13:47:07.076Z,99056.22
2022-10-01T13:52:20.160Z,99051.13
2022-10-01T13:57:32.448Z,99056.84
2022-10-01T14:02:36.744Z,99052.03
2022-10-01T14:07:40.030Z,99047.38
2022-10-01T14:13:04.471Z,99048.13
2022-10-01T14:18:16.240Z,99046.66
2022-10-01T14:23:27.900Z,99047.75
2022-10-01T14:28:56.689Z,99044.81
2022-10-01T14:34:19.882Z,99042.28
2022-10-01T14:39:23.223Z,99039.13
2022-10-01T14:44:38.201Z,99027.16
2022-10-01T14:49:39.785Z,99036.09
2022-10-01T14:54:51.470Z,99030.50
2022-10-01T14:59:54.065Z,99028.88
2022-10-01T15:04:57.161Z,99031.63
2022-10-01T15:10:08.338Z,99039.28
2022-10-01T15:15:42.044Z,99038.13
2022-10-01T15:21:02.559Z,99041.28
2022-10-01T15:26:08.973Z,99035.22
2022-10-01T15:31:10.908Z,99031.66
2022-10-01T15:36:17.762Z,99044.00
2022-10-01T15:41:31.418Z,99038.47
2022-10-01T15:46:35.667Z,99039.84
2022-10-01T15:52:06.030Z,99045.28
2022-10-01T15:57:08.972Z,99053.59
2022-10-01T16:02:19.993Z,99047.41
2022-10-01T16:07:27.749Z,99052.22
2022-10-01T16:12:30.286Z,99046.19
2022-10-01T16:17:37.421Z,99049.59
2022-10-01T16:22:39.803Z,99066.75
2022-10-01T16:27:45.497Z,99079.41
2022-10-01T16:32:47.263Z,99075.13
2022-10-01T16:37:51.873Z,99078.47
2022-10-01T16:42:53.860Z,99083.19
2022-10-01T16:47:59.260Z,99083.28
2022-10-01T16:53:01.334Z,99080.78
2022-10-01T16:58:04.614Z,99088.22
2022-10-01T17:03:09.093Z,99102.16
2022-10-01T17:08:14.523Z,99114.75
2022-10-01T17:13:16.167Z,99113.03
2022-10-01T17:18:18.754Z,99106.66
2022-10-01T17:23:22.404Z,99115.84
2022-10-01T17:28:24.504Z,99125.03
2022-10-01T17:33:28.345Z,99123.63
2022-10-01T17:38:30.241Z,99129.13
2022-10-01T17:43:31.916Z,99126.16
2022-10-01T17:48:33.575Z,99129.00
2022-10-01T17:53:42.202Z,99148.28
2022-10-01T17:58:46.016Z,99142.72
2022-10-01T18:03:51.936Z,99147.13
2022-10-01T18:08:56.187Z,99145.59
2022-10-01T18:13:58.740Z,99161.16
2022-10-01T18:24:23.599Z,99163.16
2022-10-01T18:29:28.683Z,99173.19
2022-10-01T18:34:57.826Z,99180.50
2022-10-01T18:40:06.823Z,99184.03
2022-10-01T18:45:15.980Z,99183.47
2022-10-01T18:50:28.325Z,99172.00
2022-10-01T18:56:11.632Z,99178.06
2022-10-01T19:01:24.367Z,99188.34
2022-10-01T19:06:49.820Z,99194.59
2022-10-01T19:12:00.469Z,99187.47
2022-10-01T19:17:11.159Z,99195.38
2022-10-01T19:22:35.174Z,99199.91
2022-10-01T19:27:55.399Z,99208.81
2022-10-01T19:33:03.972Z,99220.56
2022-10-01T19:38:29.794Z,99223.47
2022-10-01T19:43:41.713Z,99236.97
2022-10-01T19:49:09.682Z,99239.75
2022-10-01T19:54:21.312Z,99256.13
2022-10-01T19:59:23.266Z,99259.00
2022-10-01T20:04:38.593Z,99264.03
2022-10-01T20:09:43.972Z,99276.34
2022-10-01T20:15:11.719Z,99285.59
2022-10-01T20:20:23.818Z,99312.53
2022-10-01T20:25:50.499Z,99330.91
2022-10-01T20:31:00.431Z,99331.72
2022-10-01T20:36:17.906Z,99346.91
2022-10-01T20:41:22.096Z,99345.69
2022-10-01T20:46:48.407Z,99347.31
2022-10-01T20:51:55.887Z,99357.53
2022-10-01T20:57:05.686Z,99373.31
2022-10-01T21:02:41.810Z,99379.72
2022-10-01T21:07:59.385Z,99384.63
2022-10-01T21:13:19.138Z,99394.44
2022-10-01T21:18:47.142Z,99409.81
2022-10-01T21:24:06.056Z,99411.41
2022-10-01T21:29:29.184Z,99421.31
2022-10-01T21:35:16.248Z,99434.97
2022-10-01T21:40:35.614Z,99444.16
2022-10-01T21:46:08.951Z,99454.88
2022-10-01T21:51:53.403Z,99480.19
2022-10-01T21:57:17.278Z,99465.31
2022-10-01T22:02:34.852Z,99479.41
2022-10-01T22:07:43.194Z,99485.66
2022-10-01T22:12:50.119Z,99494.38
2022-10-01T22:17:53.723Z,99496.53
2022-10-01T22:22:59.217Z,99510.41
2022-10-01T22:28:08.304Z,99512.94
2022-10-01T22:33:19.758Z,99536.91
2022-10-01T22:38:31.440Z,99538.09
2022-10-01T22:43:33.073Z,99546.00
2022-10-01T22:48:59.873Z,99554.13
2022-10-01T22:54:13.708Z,99562.03
2022-10-01T22:59:27.340Z,99571.59
2022-10-01T23:04:41.849Z,99580.81
2022-10-01T23:10:03.743Z,99577.06
2022-10-01T23:15:13.130Z,99581.50
2022-10-01T23:20:31.898Z,99587.72
2022-10-01T23:25:52.095Z,99590.81
2022-10-01T23:31:12.522Z,99604.94
2022-10-01T23:36:16.727Z,99611.59
2022-10-01T23:41:25.343Z,99616.81
2022-10-01T23:46:31.493Z,99619.31
2022-10-01T23:51:42.990Z,99629.84
2022-10-01T23:57:05.052Z,99640.63
